Time;durP1;ratioP1;P1;durP2;ratioP2;P2;SDS_P1;SDS_P2;PMS_P1;PMS_P2;Temp;Humidity;BMP_temperature;BMP_pressure;BME280_temperature;BME280_humidity;BME280_pressure;Samples;Min_cycle;Max_cycle;Signal;HPM_P1;HPM_P2
2022/04/27 00:01:13;;;;;;;9.57;7.00;;;9.90;99.90;;;;;;5066211;28;20416;-71
2022/04/27 00:04:00;;;;;;;8.10;6.50;;;10.10;99.90;;;;;;5068306;28;20440;-70
2022/04/27 00:06:46;;;;;;;8.20;6.83;;;10.10;99.90;;;;;;5068893;28;20551;-70
2022/04/27 00:09:32;;;;;;;7.60;6.70;;;10.10;99.90;;;;;;5065378;28;20416;-70
2022/04/27 00:12:17;;;;;;;10.93;6.93;;;10.10;99.90;;;;;;5069059;28;20437;-73
2022/04/27 00:15:03;;;;;;;10.17;6.70;;;10.30;99.90;;;;;;5070976;28;20804;-72
2022/04/27 00:17:49;;;;;;;9.00;7.73;;;10.30;99.90;;;;;;5065870;28;20439;-72
2022/04/27 00:20:36;;;;;;;8.30;7.43;;;10.20;99.90;;;;;;5064463;28;20889;-72
2022/04/27 00:23:25;;;;;;;9.33;8.07;;;10.20;99.90;;;;;;5072293;28;20916;-72
2022/04/27 00:26:10;;;;;;;8.43;6.83;;;10.20;99.90;;;;;;5071080;28;20486;-72
2022/04/27 00:28:56;;;;;;;9.00;7.90;;;10.20;99.90;;;;;;5069607;28;21454;-72
2022/04/27 00:31:42;;;;;;;8.67;7.27;;;10.20;99.90;;;;;;5068632;28;20565;-72
2022/04/27 00:34:27;;;;;;;12.90;7.60;;;10.20;99.90;;;;;;5070810;28;20570;-72
2022/04/27 00:37:14;;;;;;;10.23;8.80;;;10.30;99.90;;;;;;5072254;28;20476;-72
2022/04/27 00:40:00;;;;;;;12.73;8.70;;;10.30;99.90;;;;;;5068673;28;20977;-72
2022/04/27 00:42:46;;;;;;;11.40;9.40;;;10.30;99.90;;;;;;5071753;28;20623;-72
2022/04/27 00:45:31;;;;;;;10.73;8.10;;;10.30;99.90;;;;;;5070187;28;20945;-72
2022/04/27 00:48:17;;;;;;;11.57;9.07;;;10.20;99.90;;;;;;5069738;28;20966;-72
2022/04/27 00:51:03;;;;;;;10.17;8.53;;;10.10;99.90;;;;;;5071382;28;20768;-72
2022/04/27 00:53:51;;;;;;;12.10;9.07;;;10.00;99.90;;;;;;5071132;28;20436;-72
2022/04/27 00:56:39;;;;;;;14.30;8.70;;;10.20;99.90;;;;;;5070895;28;20468;-72
2022/04/27 00:59:24;;;;;;;11.47;9.37;;;10.30;99.90;;;;;;5065761;28;20607;-72
2022/04/27 01:02:10;;;;;;;10.73;8.20;;;10.30;99.90;;;;;;5071242;28;22351;-72
2022/04/27 01:04:56;;;;;;;12.03;8.67;;;10.40;99.90;;;;;;5070551;28;21198;-72
2022/04/27 01:07:42;;;;;;;10.10;8.67;;;10.40;99.90;;;;;;5070155;28;20446;-72
2022/04/27 01:10:30;;;;;;;11.60;9.37;;;10.30;99.90;;;;;;5070804;28;21058;-72
2022/04/27 01:13:16;;;;;;;9.80;8.40;;;10.30;99.90;;;;;;5071431;28;20438;-73
2022/04/27 01:16:02;;;;;;;11.90;8.10;;;10.40;99.90;;;;;;5070108;28;20559;-73
2022/04/27 01:18:49;;;;;;;11.80;8.43;;;10.40;99.90;;;;;;5068309;28;20958;-72
2022/04/27 01:21:37;;;;;;;13.17;10.10;;;10.50;99.90;;;;;;5071007;28;20420;-72
2022/04/27 01:24:25;;;;;;;15.40;9.40;;;10.60;99.90;;;;;;5069009;28;20907;-72
2022/04/27 01:27:11;;;;;;;10.40;9.20;;;10.40;99.90;;;;;;5070133;28;20440;-72
2022/04/27 01:29:56;;;;;;;15.30;9.83;;;10.30;99.90;;;;;;5067238;28;20546;-72
2022/04/27 01:32:42;;;;;;;12.70;10.43;;;10.20;99.90;;;;;;5067322;28;20450;-73
2022/04/27 01:35:28;;;;;;;12.97;9.87;;;10.10;99.90;;;;;;5069942;28;20461;-72
2022/04/27 01:38:18;;;;;;;12.87;10.30;;;10.20;99.90;;;;;;5066354;28;20588;-72
2022/04/27 01:41:04;;;;;;;11.57;10.30;;;10.30;99.90;;;;;;5070498;28;20430;-72
2022/04/27 01:43:49;;;;;;;13.23;10.70;;;10.40;99.90;;;;;;5069276;28;20807;-73
2022/04/27 01:46:35;;;;;;;11.70;9.60;;;10.50;99.90;;;;;;5070537;28;20464;-73
2022/04/27 01:49:20;;;;;;;12.90;10.57;;;10.40;99.90;;;;;;5068040;28;20487;-72
2022/04/27 01:55:11;;;;;;;11.50;9.80;;;10.50;99.90;;;;;;5070707;28;21236;-72
2022/04/27 01:57:58;;;;;;;10.33;8.90;;;10.50;99.90;;;;;;5065309;28;20432;-73
2022/04/27 02:00:47;;;;;;;11.27;9.47;;;10.50;99.90;;;;;;5068989;28;20424;-72
2022/04/27 02:03:33;;;;;;;10.50;8.93;;;10.60;99.90;;;;;;5069619;28;20809;-72
2022/04/27 02:06:19;;;;;;;12.40;10.23;;;10.40;99.90;;;;;;5069838;28;20502;-72
2022/04/27 02:09:05;;;;;;;15.07;9.50;;;10.30;99.90;;;;;;5069015;28;21025;-73
2022/04/27 02:11:53;;;;;;;10.87;9.73;;;10.20;99.90;;;;;;5069786;28;20435;-72
2022/04/27 02:14:39;;;;;;;11.53;9.43;;;10.10;99.90;;;;;;5069201;28;20466;-72
2022/04/27 02:17:25;;;;;;;12.93;10.80;;;10.10;99.90;;;;;;5066553;28;20455;-73
2022/04/27 02:20:11;;;;;;;15.10;10.60;;;10.10;99.90;;;;;;5069474;28;20412;-73
2022/04/27 02:22:57;;;;;;;12.63;10.93;;;9.90;99.90;;;;;;5069476;28;20537;-73
2022/04/27 02:25:43;;;;;;;11.83;10.10;;;9.80;99.90;;;;;;5066355;28;20453;-73
2022/04/27 02:28:30;;;;;;;13.30;10.50;;;9.80;99.90;;;;;;5064400;28;20428;-72
2022/04/27 02:31:16;;;;;;;11.73;10.13;;;9.80;99.90;;;;;;5070436;28;20780;-73
2022/04/27 02:34:02;;;;;;;11.53;9.77;;;9.70;99.90;;;;;;5066708;28;20485;-73
2022/04/27 02:36:47;;;;;;;12.90;9.60;;;9.60;99.90;;;;;;5067198;28;20456;-72
2022/04/27 02:39:33;;;;;;;13.43;11.00;;;9.50;99.90;;;;;;5068381;28;20527;-73
2022/04/27 02:42:18;;;;;;;12.20;10.90;;;9.40;99.90;;;;;;5069533;28;20800;-72
2022/04/27 02:45:06;;;;;;;12.00;10.53;;;9.20;99.90;;;;;;5069480;28;20909;-73
2022/04/27 02:47:52;;;;;;;13.77;9.70;;;9.20;99.90;;;;;;5065188;28;20472;-73
2022/04/27 02:53:42;;;;;;;11.23;9.70;;;9.00;99.90;;;;;;5065299;28;20468;-72
2022/04/27 02:56:28;;;;;;;11.50;9.27;;;9.00;99.90;;;;;;5062263;28;20443;-72
2022/04/27 02:59:14;;;;;;;12.70;10.63;;;9.00;99.90;;;;;;5068548;28;20428;-72
2022/04/27 03:02:01;;;;;;;10.70;9.57;;;9.00;99.90;;;;;;5069531;28;20432;-73
2022/04/27 03:04:47;;;;;;;11.83;10.03;;;9.00;99.90;;;;;;5068563;28;20443;-72
2022/04/27 03:07:32;;;;;;;13.93;9.53;;;8.80;99.90;;;;;;5065207;28;20579;-73
2022/04/27 03:10:18;;;;;;;12.17;10.13;;;8.90;99.90;;;;;;5069192;28;20445;-72
2022/04/27 03:13:04;;;;;;;14.00;10.57;;;8.80;99.90;;;;;;5068735;28;20414;-72
2022/04/27 03:15:49;;;;;;;14.37;11.20;;;8.80;99.90;;;;;;5068113;28;20818;-72
2022/04/27 03:18:37;;;;;;;12.30;10.90;;;9.00;99.90;;;;;;5067973;28;20416;-72
2022/04/27 03:21:23;;;;;;;11.73;9.80;;;9.00;99.90;;;;;;5068042;28;21202;-73
2022/04/27 03:24:09;;;;;;;14.53;10.97;;;9.20;99.90;;;;;;5069572;28;20437;-72
2022/04/27 03:26:55;;;;;;;13.37;10.90;;;9.30;99.90;;;;;;5065179;28;20442;-72
2022/04/27 03:29:40;;;;;;;15.83;11.27;;;9.40;99.90;;;;;;5068989;28;20419;-72
2022/04/27 03:32:26;;;;;;;13.47;10.97;;;9.40;99.90;;;;;;5067798;28;20417;-72
2022/04/27 03:35:13;;;;;;;12.43;10.57;;;9.30;99.90;;;;;;5068054;28;20464;-72
2022/04/27 03:37:59;;;;;;;11.30;9.27;;;9.20;99.90;;;;;;5045854;28;20433;-73
2022/04/27 03:40:46;;;;;;;15.53;11.97;;;9.10;99.90;;;;;;5047960;28;20424;-72
2022/04/27 03:43:32;;;;;;;15.23;13.13;;;9.20;99.90;;;;;;5048374;28;21007;-72
2022/04/27 03:46:19;;;;;;;22.20;15.17;;;9.30;99.90;;;;;;5042113;28;20595;-73
2022/04/27 03:49:05;;;;;;;19.27;15.40;;;9.40;99.90;;;;;;5045979;28;20444;-73
2022/04/27 03:51:52;;;;;;;18.00;14.43;;;9.40;99.90;;;;;;5046869;28;20490;-73
2022/04/27 03:54:37;;;;;;;17.90;14.10;;;9.50;99.90;;;;;;5048769;28;21050;-72
2022/04/27 03:57:23;;;;;;;17.80;14.33;;;9.50;99.90;;;;;;5046999;28;20469;-72
2022/04/27 04:00:10;;;;;;;18.07;13.67;;;9.70;99.90;;;;;;5049074;28;20779;-72
2022/04/27 04:02:56;;;;;;;20.00;15.40;;;9.70;99.90;;;;;;5053180;28;20417;-72
2022/04/27 04:05:42;;;;;;;17.93;14.30;;;9.70;99.90;;;;;;5049835;28;20479;-72
2022/04/27 04:08:29;;;;;;;17.83;13.50;;;9.70;99.90;;;;;;5050202;28;20427;-72
2022/04/27 04:11:15;;;;;;;19.40;14.43;;;9.70;99.90;;;;;;5048736;28;20466;-73
2022/04/27 04:14:01;;;;;;;21.50;16.43;;;9.70;99.90;;;;;;5048835;28;20487;-73
2022/04/27 04:16:47;;;;;;;17.57;14.20;;;9.60;99.90;;;;;;5047211;28;20445;-72
2022/04/27 04:19:32;;;;;;;23.03;16.93;;;9.70;99.90;;;;;;5051840;28;20404;-72
2022/04/27 04:22:18;;;;;;;19.87;14.50;;;9.70;99.90;;;;;;5047731;28;20467;-73
2022/04/27 04:31:14;;;;;;;19.43;14.53;;;9.60;99.90;;;;;;5047136;28;20511;-73
2022/04/27 04:33:59;;;;;;;20.30;15.80;;;9.60;99.90;;;;;;5050304;28;20458;-72
2022/04/27 04:36:45;;;;;;;22.73;16.73;;;9.70;99.90;;;;;;5048673;28;20479;-73
2022/04/27 04:39:31;;;;;;;22.10;16.10;;;9.70;99.90;;;;;;5052407;28;20441;-72
2022/04/27 04:42:18;;;;;;;22.20;16.30;;;9.70;99.90;;;;;;5052290;28;20532;-72
2022/04/27 04:45:04;;;;;;;21.70;16.10;;;9.70;99.90;;;;;;5049034;28;20425;-72
2022/04/27 04:47:50;;;;;;;18.63;14.77;;;9.70;99.90;;;;;;5049451;28;20448;-77
2022/04/27 04:50:36;;;;;;;23.33;16.57;;;9.80;99.90;;;;;;5050691;28;20471;-73
2022/04/27 04:53:22;;;;;;;20.47;15.40;;;9.80;99.90;;;;;;5047522;28;20425;-73
2022/04/27 04:56:07;;;;;;;20.87;15.27;;;9.90;99.90;;;;;;5048631;28;20597;-73
2022/04/27 04:58:54;;;;;;;20.17;15.13;;;9.80;99.90;;;;;;5051100;28;20516;-73
2022/04/27 05:01:40;;;;;;;20.27;13.97;;;9.70;99.90;;;;;;5051744;28;20426;-74
2022/04/27 05:04:25;;;;;;;22.47;16.17;;;9.70;99.90;;;;;;5049475;28;20503;-73
2022/04/27 05:07:11;;;;;;;25.50;16.27;;;9.80;99.90;;;;;;5055885;28;20544;-73
2022/04/27 05:09:56;;;;;;;25.70;18.07;;;9.80;99.90;;;;;;5049668;28;20448;-74
2022/04/27 05:12:42;;;;;;;24.50;18.77;;;9.90;99.90;;;;;;5051479;28;20589;-73
2022/04/27 05:15:29;;;;;;;28.50;19.60;;;9.90;99.90;;;;;;5045045;28;20440;-73
2022/04/27 05:18:16;;;;;;;26.57;20.40;;;9.90;99.90;;;;;;5050576;28;20949;-73
2022/04/27 05:21:02;;;;;;;30.80;20.97;;;10.00;99.90;;;;;;5050756;28;20425;-73
2022/04/27 05:23:47;;;;;;;28.70;21.13;;;10.10;99.90;;;;;;5050452;28;20966;-73
2022/04/27 05:26:33;;;;;;;33.07;23.77;;;10.20;99.90;;;;;;5052307;28;20537;-73
2022/04/27 05:32:23;;;;;;;34.70;23.10;;;10.20;99.90;;;;;;5049506;28;20465;-74
2022/04/27 05:35:09;;;;;;;33.47;22.53;;;10.20;99.90;;;;;;5050686;28;20482;-73
2022/04/27 05:37:55;;;;;;;32.00;22.57;;;10.20;99.90;;;;;;5049801;28;20482;-74
2022/04/27 05:40:43;;;;;;;29.73;21.60;;;10.30;99.90;;;;;;5050690;28;20924;-73
2022/04/27 05:43:28;;;;;;;32.13;21.07;;;10.30;99.90;;;;;;5049586;28;20450;-74
2022/04/27 05:46:14;;;;;;;30.70;20.77;;;10.30;99.90;;;;;;5044877;28;20510;-73
2022/04/27 05:49:02;;;;;;;30.37;20.73;;;10.30;99.90;;;;;;5050470;28;20454;-73
2022/04/27 05:51:48;;;;;;;31.80;21.60;;;10.30;99.90;;;;;;5047898;28;20593;-74
2022/04/27 05:54:34;;;;;;;30.43;20.87;;;10.30;99.90;;;;;;5044632;28;20957;-73
2022/04/27 05:57:20;;;;;;;29.50;21.30;;;10.30;99.90;;;;;;5049584;28;20469;-73
2022/04/27 06:00:07;;;;;;;28.67;20.40;;;10.30;99.90;;;;;;5050924;28;20421;-73
2022/04/27 06:02:52;;;;;;;27.63;19.50;;;10.30;99.90;;;;;;5050516;28;20591;-73
2022/04/27 06:05:39;;;;;;;25.73;18.47;;;10.40;99.90;;;;;;5042539;28;20447;-73
2022/04/27 06:08:25;;;;;;;28.00;20.60;;;10.40;99.90;;;;;;5048174;28;20448;-73
2022/04/27 06:11:11;;;;;;;32.03;20.30;;;10.40;99.90;;;;;;5050494;28;20458;-73
2022/04/27 06:13:56;;;;;;;26.60;18.67;;;10.40;99.90;;;;;;5049423;28;20458;-73
2022/04/27 06:16:42;;;;;;;28.80;20.00;;;10.50;99.90;;;;;;5046284;28;20840;-73
2022/04/27 06:19:28;;;;;;;29.50;19.30;;;10.50;99.90;;;;;;5046478;28;20458;-73
2022/04/27 06:22:15;;;;;;;29.13;20.47;;;10.40;99.90;;;;;;5049353;28;20454;-73
2022/04/27 06:25:01;;;;;;;27.67;20.30;;;10.40;99.90;;;;;;5045164;28;20454;-74
2022/04/27 06:27:46;;;;;;;28.40;20.60;;;10.40;99.90;;;;;;5047133;28;20477;-73
2022/04/27 06:30:35;;;;;;;28.07;18.67;;;10.40;99.90;;;;;;5050115;28;20493;-73
2022/04/27 06:33:21;;;;;;;26.17;19.20;;;10.40;99.90;;;;;;5047079;28;20458;-74
2022/04/27 06:36:06;;;;;;;32.23;20.80;;;10.50;99.90;;;;;;5045414;28;21014;-73
2022/04/27 06:38:53;;;;;;;28.37;20.87;;;10.60;99.90;;;;;;5047767;28;20550;-74
2022/04/27 06:41:39;;;;;;;28.53;20.13;;;10.70;99.90;;;;;;5050307;28;20467;-73
2022/04/27 06:44:25;;;;;;;31.20;22.43;;;10.80;99.90;;;;;;5043680;28;20519;-74
2022/04/27 06:47:10;;;;;;;29.13;20.47;;;10.80;99.90;;;;;;5049815;28;20564;-73
2022/04/27 06:49:56;;;;;;;29.30;20.30;;;10.80;99.90;;;;;;5048254;28;20449;-73
2022/04/27 06:52:42;;;;;;;32.17;21.70;;;10.80;99.90;;;;;;5045703;28;20425;-73
2022/04/27 06:55:29;;;;;;;29.70;22.17;;;10.90;99.90;;;;;;5046025;28;20470;-73
2022/04/27 06:58:15;;;;;;;26.70;20.37;;;10.90;99.90;;;;;;5048463;28;20414;-74
2022/04/27 07:01:01;;;;;;;28.63;21.43;;;11.00;99.90;;;;;;5047500;28;20428;-73
2022/04/27 07:03:47;;;;;;;29.43;21.00;;;11.10;99.90;;;;;;5048653;28;21019;-74
2022/04/27 07:06:33;;;;;;;31.03;22.10;;;11.10;99.90;;;;;;5050763;28;20437;-73
2022/04/27 07:09:18;;;;;;;28.13;20.10;;;11.20;99.90;;;;;;5051640;28;20528;-73
2022/04/27 07:12:07;;;;;;;25.70;18.80;;;11.30;99.90;;;;;;5047963;28;20581;-74
2022/04/27 07:14:52;;;;;;;26.77;19.73;;;11.30;99.90;;;;;;5051252;28;20513;-78
2022/04/27 07:17:38;;;;;;;25.60;18.47;;;11.40;99.90;;;;;;5048563;28;20839;-73
2022/04/27 07:20:24;;;;;;;27.83;19.87;;;11.50;99.90;;;;;;5045806;28;20564;-74
2022/04/27 07:23:09;;;;;;;29.27;21.27;;;11.50;99.90;;;;;;5047721;28;20794;-74
2022/04/27 07:25:55;;;;;;;31.63;20.77;;;11.40;99.90;;;;;;5047227;28;20441;-75
2022/04/27 07:28:42;;;;;;;28.40;20.50;;;11.50;99.90;;;;;;5049307;28;20425;-74
2022/04/27 07:31:28;;;;;;;31.33;20.20;;;11.50;99.90;;;;;;5041933;28;20430;-74
2022/04/27 07:34:14;;;;;;;29.23;21.47;;;11.50;99.90;;;;;;5048613;28;20424;-74
2022/04/27 07:37:02;;;;;;;30.00;20.33;;;11.50;99.90;;;;;;5045847;28;20449;-74
2022/04/27 07:39:47;;;;;;;30.43;21.33;;;11.50;99.90;;;;;;5045354;28;20433;-74
2022/04/27 07:42:33;;;;;;;27.13;19.43;;;11.70;99.90;;;;;;5048749;28;20429;-74
2022/04/27 07:45:20;;;;;;;23.50;18.23;;;11.90;99.90;;;;;;5048357;28;20418;-74
2022/04/27 07:48:06;;;;;;;26.80;19.07;;;12.10;99.90;;;;;;5048108;28;20443;-74
2022/04/27 07:50:51;;;;;;;28.67;20.27;;;12.30;99.90;;;;;;5044209;28;20443;-74
2022/04/27 07:53:37;;;;;;;24.67;16.57;;;12.40;99.90;;;;;;5048282;28;20502;-74
2022/04/27 07:56:23;;;;;;;23.40;17.97;;;12.50;99.90;;;;;;5046747;28;20478;-74
2022/04/27 07:59:09;;;;;;;25.53;18.30;;;12.60;99.90;;;;;;5048913;28;20966;-74
2022/04/27 08:01:56;;;;;;;25.83;18.60;;;12.80;99.90;;;;;;5046634;28;20929;-74
2022/04/27 08:04:41;;;;;;;22.30;16.87;;;12.90;99.90;;;;;;5048141;28;20455;-74
2022/04/27 08:07:35;;;;;;;24.00;18.13;;;13.00;99.90;;;;;;5048608;28;20537;-74
2022/04/27 08:10:22;;;;;;;27.17;18.00;;;13.20;99.90;;;;;;5045743;28;20956;-74
2022/04/27 08:13:07;;;;;;;22.20;16.93;;;13.20;99.90;;;;;;5048565;28;20477;-74
2022/04/27 08:15:53;;;;;;;19.70;15.97;;;13.30;99.90;;;;;;5046470;28;20524;-74
2022/04/27 08:18:41;;;;;;;18.73;15.03;;;13.40;99.90;;;;;;5049880;28;20424;-74
2022/04/27 08:21:27;;;;;;;21.40;15.93;;;13.40;99.90;;;;;;5047549;28;20995;-74
2022/04/27 08:24:16;;;;;;;19.37;15.30;;;13.50;99.90;;;;;;5044963;28;20469;-74
2022/04/27 08:27:02;;;;;;;22.57;15.00;;;13.50;99.90;;;;;;5047942;28;21021;-74
2022/04/27 08:29:47;;;;;;;21.67;16.13;;;13.60;99.90;;;;;;5045470;28;20443;-74
2022/04/27 08:32:33;;;;;;;19.97;15.40;;;13.60;99.90;;;;;;5048125;28;20489;-74
2022/04/27 08:35:20;;;;;;;24.87;14.80;;;13.70;99.90;;;;;;5045494;28;20426;-74
2022/04/27 08:38:07;;;;;;;23.57;17.23;;;13.70;99.90;;;;;;5048372;28;20586;-73
2022/04/27 08:40:53;;;;;;;21.43;15.30;;;13.80;99.90;;;;;;5043094;28;20463;-74
2022/04/27 08:43:38;;;;;;;21.73;16.50;;;13.90;99.90;;;;;;5051801;28;20418;-72
2022/04/27 08:46:26;;;;;;;20.13;15.10;;;14.00;99.90;;;;;;5046705;28;20994;-73
2022/04/27 08:49:13;;;;;;;16.40;12.53;;;14.10;99.90;;;;;;5050272;28;20402;-73
2022/04/27 08:52:01;;;;;;;15.50;13.20;;;14.10;99.90;;;;;;5051489;28;20426;-72
2022/04/27 08:54:49;;;;;;;15.67;12.17;;;14.30;99.90;;;;;;5051259;28;20437;-73
2022/04/27 08:57:35;;;;;;;15.60;12.30;;;14.40;99.90;;;;;;5050730;28;20449;-73
2022/04/27 09:00:22;;;;;;;16.87;14.20;;;14.50;99.90;;;;;;5050209;28;20778;-73
2022/04/27 09:03:28;;;;;;;16.70;13.10;;;14.60;99.90;;;;;;5049164;28;20443;-74
2022/04/27 09:06:15;;;;;;;17.10;13.93;;;14.70;99.90;;;;;;5047639;28;20434;-73
2022/04/27 09:09:02;;;;;;;15.10;12.10;;;14.70;99.90;;;;;;5049893;28;20707;-73
2022/04/27 09:11:53;;;;;;;16.47;12.30;;;14.80;99.90;;;;;;5051022;28;20541;-74
2022/04/27 09:14:39;;;;;;;16.83;13.13;;;14.90;99.90;;;;;;5049530;28;20913;-74
2022/04/27 09:23:37;;;;;;;15.37;12.63;;;15.00;99.90;;;;;;5049691;28;20956;-71
2022/04/27 09:26:27;;;;;;;16.60;11.97;;;15.10;99.90;;;;;;5047679;28;20452;-71
2022/04/27 09:29:24;;;;;;;15.43;11.80;;;15.20;99.90;;;;;;5050047;28;20435;-71
2022/04/27 09:32:16;;;;;;;16.13;10.73;;;15.40;99.90;;;;;;5050100;28;20546;-72
2022/04/27 09:35:03;;;;;;;13.53;10.20;;;15.60;99.90;;;;;;5046777;28;20999;-72
2022/04/27 09:37:48;;;;;;;15.03;10.87;;;15.60;99.90;;;;;;5048090;28;20526;-72
2022/04/27 09:40:44;;;;;;;17.83;12.93;;;15.70;99.90;;;;;;5049745;28;20443;-71
2022/04/27 09:43:45;;;;;;;13.37;11.07;;;15.80;99.90;;;;;;5048308;28;20489;-69
2022/04/27 09:46:31;;;;;;;17.20;9.67;;;16.00;99.90;;;;;;5042114;28;20448;-70
2022/04/27 09:49:17;;;;;;;13.30;10.57;;;16.10;99.90;;;;;;5051320;28;20455;-69
2022/04/27 09:52:04;;;;;;;13.60;10.53;;;16.20;99.90;;;;;;5048651;28;20497;-69
2022/04/27 09:54:52;;;;;;;15.00;9.90;;;16.20;98.30;;;;;;5045492;28;20935;-73
2022/04/27 09:57:39;;;;;;;11.63;8.90;;;16.20;95.90;;;;;;5048045;28;20450;-69
2022/04/27 10:00:30;;;;;;;12.37;9.40;;;16.30;93.80;;;;;;5048946;28;20833;-71
2022/04/27 10:03:18;;;;;;;13.03;10.07;;;16.30;92.00;;;;;;5050251;28;20414;-72
2022/04/27 10:06:06;;;;;;;12.40;10.20;;;16.20;93.80;;;;;;5044979;28;21176;-71
2022/04/27 10:08:52;;;;;;;13.37;10.17;;;16.20;93.10;;;;;;5047836;28;20500;-73
2022/04/27 10:11:39;;;;;;;11.70;9.77;;;16.10;92.60;;;;;;5036395;28;20456;-72
2022/04/27 10:14:26;;;;;;;13.80;9.80;;;16.30;92.50;;;;;;5044314;28;20865;-72
2022/04/27 10:17:15;;;;;;;11.33;9.73;;;16.40;91.80;;;;;;5050255;28;20450;-73
2022/04/27 10:20:00;;;;;;;11.77;9.93;;;16.50;93.50;;;;;;5044078;28;20448;-72
2022/04/27 10:22:46;;;;;;;12.87;10.43;;;16.60;92.30;;;;;;5047437;28;20476;-71
2022/04/27 10:25:31;;;;;;;11.77;8.63;;;16.70;92.60;;;;;;5045466;28;21046;-72
2022/04/27 10:28:18;;;;;;;13.70;10.07;;;16.80;92.50;;;;;;5049960;28;20468;-71
2022/04/27 10:31:07;;;;;;;12.70;10.27;;;16.90;90.70;;;;;;5047750;28;20439;-72
2022/04/27 10:33:57;;;;;;;12.30;9.70;;;16.90;90.70;;;;;;5046634;28;20433;-72
2022/04/27 10:36:43;;;;;;;15.97;9.37;;;17.10;89.20;;;;;;5052381;28;20469;-73
2022/04/27 10:39:30;;;;;;;12.17;9.00;;;17.30;90.80;;;;;;5055813;28;20464;-72
2022/04/27 10:42:31;;;;;;;11.07;9.90;;;17.50;87.00;;;;;;5052631;28;20448;-72
2022/04/27 10:45:23;;;;;;;11.53;9.10;;;17.50;84.50;;;;;;5047092;28;20423;-71
2022/04/27 10:48:14;;;;;;;10.40;8.10;;;17.70;88.30;;;;;;5073365;22;20439;-71
2022/04/27 10:51:03;;;;;;;9.00;7.20;;;17.80;82.10;;;;;;5075355;28;20474;-71
2022/04/27 10:53:50;;;;;;;10.47;7.80;;;17.70;76.90;;;;;;5070753;28;20460;-71
2022/04/27 10:56:36;;;;;;;10.63;8.20;;;17.50;74.00;;;;;;5077263;28;20572;-71
2022/04/27 10:59:47;;;;;;;11.23;8.47;;;17.40;77.00;;;;;;5061661;28;20523;-72
2022/04/27 11:02:33;;;;;;;10.80;8.33;;;17.50;75.40;;;;;;5050062;28;20417;-72
2022/04/27 11:05:21;;;;;;;10.90;8.40;;;17.60;76.70;;;;;;5050081;28;20450;-72
2022/04/27 11:08:21;;;;;;;12.07;8.13;;;17.60;78.00;;;;;;5059738;28;20447;-72
2022/04/27 11:11:08;;;;;;;14.10;8.47;;;17.80;76.70;;;;;;5058431;28;20537;-72
2022/04/27 11:13:59;;;;;;;11.10;7.23;;;18.00;75.70;;;;;;5050179;28;20926;-71
2022/04/27 11:16:47;;;;;;;7.90;6.23;;;18.00;72.20;;;;;;5055259;28;20477;-71
2022/04/27 11:19:37;;;;;;;8.03;6.57;;;17.90;71.40;;;;;;5055507;28;20472;-72
2022/04/27 11:22:23;;;;;;;9.90;6.13;;;18.00;74.00;;;;;;5056220;28;20448;-72
2022/04/27 11:25:12;;;;;;;6.50;5.90;;;18.00;68.20;;;;;;5049055;28;20438;-72
2022/04/27 11:27:58;;;;;;;7.47;5.70;;;17.90;63.20;;;;;;5056190;28;20464;-71
2022/04/27 11:30:45;;;;;;;11.40;7.20;;;17.70;61.00;;;;;;5048082;28;20443;-69
2022/04/27 11:33:31;;;;;;;8.43;7.03;;;17.60;63.00;;;;;;5050094;28;20576;-71
2022/04/27 11:36:24;;;;;;;9.77;7.20;;;17.60;64.40;;;;;;5055040;28;20515;-71
2022/04/27 11:39:20;;;;;;;9.70;7.20;;;17.70;68.30;;;;;;5059159;28;20833;-71
2022/04/27 11:42:07;;;;;;;9.70;6.70;;;17.70;67.30;;;;;;5061487;28;20569;-71
2022/04/27 11:44:58;;;;;;;7.53;6.73;;;17.70;66.90;;;;;;5051149;28;20418;-71
2022/04/27 11:47:43;;;;;;;8.57;7.37;;;17.70;67.60;;;;;;5054919;28;20466;-70
2022/04/27 11:50:31;;;;;;;8.70;7.77;;;17.90;73.10;;;;;;5060442;28;20425;-72
2022/04/27 11:53:17;;;;;;;9.33;6.80;;;18.10;69.90;;;;;;5053097;28;20434;-71
2022/04/27 11:56:02;;;;;;;7.77;6.33;;;18.20;66.60;;;;;;5054554;28;20429;-71
2022/04/27 11:58:50;;;;;;;5.23;4.70;;;18.30;66.00;;;;;;5045996;28;20459;-72
2022/04/27 12:01:35;;;;;;;5.93;4.60;;;18.50;63.70;;;;;;5049451;28;20430;-72
2022/04/27 12:04:21;;;;;;;6.53;4.20;;;18.60;61.30;;;;;;5055779;28;20390;-71
2022/04/27 12:07:12;;;;;;;5.50;3.97;;;18.80;55.10;;;;;;5040660;28;20431;-71
2022/04/27 12:10:00;;;;;;;3.80;3.00;;;19.00;52.00;;;;;;5033453;28;20442;-72
2022/04/27 12:12:46;;;;;;;6.00;3.27;;;19.30;46.90;;;;;;5050837;28;20442;-72
2022/04/27 12:15:33;;;;;;;3.90;3.27;;;19.50;44.60;;;;;;5047632;28;20447;-73
2022/04/27 12:18:19;;;;;;;3.90;3.10;;;19.80;43.40;;;;;;5058530;28;20581;-74
2022/04/27 12:21:19;;;;;;;7.30;3.60;;;19.90;40.20;;;;;;5045730;28;20421;-75
2022/04/27 12:24:20;;;;;;;5.93;3.40;;;19.80;39.30;;;;;;5056803;28;20416;-74
2022/04/27 12:27:18;;;;;;;5.77;3.13;;;19.40;36.10;;;;;;5054012;28;20934;-74
2022/04/27 12:30:08;;;;;;;6.00;5.00;;;19.20;38.70;;;;;;5044086;28;20487;-74
2022/04/27 12:32:55;;;;;;;7.57;5.70;;;19.20;39.70;;;;;;5043289;28;20434;-74
2022/04/27 12:38:59;;;;;;;8.57;5.60;;;19.50;42.70;;;;;;5034651;28;20471;-73
2022/04/27 12:41:47;;;;;;;83.40;56.73;;;19.90;42.50;;;;;;5042292;28;20450;-74
2022/04/27 12:44:38;;;;;;;176.60;115.20;;;20.00;39.60;;;;;;5055345;28;20918;-72
2022/04/27 12:47:24;;;;;;;49.53;34.93;;;19.80;36.60;;;;;;5054453;28;20386;-74
2022/04/27 12:50:11;;;;;;;16.27;11.80;;;19.60;42.60;;;;;;5044914;28;20458;-74
2022/04/27 12:53:08;;;;;;;27.77;21.70;;;19.40;46.00;;;;;;5049296;28;20444;-74
2022/04/27 12:56:11;;;;;;;25.10;18.50;;;19.30;52.10;;;;;;5060503;28;20637;-74
2022/04/27 12:59:04;;;;;;;15.13;9.90;;;19.20;43.50;;;;;;5046544;28;20434;-70
2022/04/27 13:02:01;;;;;;;12.00;8.37;;;19.30;37.30;;;;;;5055193;28;20479;-71
2022/04/27 13:04:47;;;;;;;15.37;11.33;;;19.10;39.50;;;;;;5057515;28;20472;-71
2022/04/27 13:07:34;;;;;;;57.10;39.20;;;19.00;39.90;;;;;;5057851;28;20987;-71
2022/04/27 13:13:23;;;;;;;12.90;9.87;;;19.00;39.90;;;;;;5056713;28;20519;-71
2022/04/27 13:16:09;;;;;;;22.87;14.93;;;19.10;38.60;;;;;;5059386;28;20485;-71
2022/04/27 13:18:56;;;;;;;14.33;9.40;;;19.40;40.60;;;;;;5051823;28;20498;-71
2022/04/27 13:21:43;;;;;;;5.70;4.77;;;19.80;39.30;;;;;;5055418;28;20586;-71
2022/04/27 13:24:31;;;;;;;6.03;3.87;;;20.10;37.50;;;;;;5051993;28;20788;-70
2022/04/27 13:27:18;;;;;;;3.90;3.40;;;20.10;34.50;;;;;;5053882;28;20519;-70
2022/04/27 13:30:05;;;;;;;5.70;3.10;;;20.30;38.80;;;;;;5047142;28;20959;-70
2022/04/27 13:32:56;;;;;;;4.30;2.97;;;20.50;37.80;;;;;;5058117;28;20454;-71
2022/04/27 13:35:43;;;;;;;7.30;2.70;;;20.70;35.00;;;;;;5059666;28;20807;-69
2022/04/27 13:38:29;;;;;;;4.93;2.70;;;20.70;34.40;;;;;;5052628;28;20489;-72
2022/04/27 13:41:16;;;;;;;6.20;2.80;;;20.60;31.70;;;;;;5049686;28;20469;-71
2022/04/27 13:44:04;;;;;;;3.63;2.83;;;20.30;33.30;;;;;;5054177;28;20440;-70
2022/04/27 13:46:49;;;;;;;4.10;3.00;;;20.00;32.00;;;;;;5051649;28;20530;-71
2022/04/27 13:49:35;;;;;;;4.13;2.83;;;19.80;33.10;;;;;;5048300;28;20486;-71
2022/04/27 13:52:21;;;;;;;4.63;2.80;;;19.90;34.90;;;;;;5053621;28;20425;-71
2022/04/27 13:55:08;;;;;;;4.70;2.60;;;19.80;33.80;;;;;;5055330;28;20442;-72
2022/04/27 13:57:55;;;;;;;3.93;2.73;;;19.60;34.00;;;;;;5055648;28;20439;-74
2022/04/27 14:00:42;;;;;;;3.43;2.67;;;19.40;33.50;;;;;;5050291;28;20950;-71
2022/04/27 14:03:29;;;;;;;4.10;2.80;;;19.30;35.10;;;;;;5051262;28;20549;-72
2022/04/27 14:06:16;;;;;;;5.87;3.40;;;19.00;35.00;;;;;;5052095;28;20443;-72
2022/04/27 14:09:01;;;;;;;7.80;3.07;;;18.80;35.10;;;;;;5046233;28;21001;-72
2022/04/27 14:14:52;;;;;;;3.23;2.37;;;19.20;32.80;;;;;;5052213;28;20434;-74
2022/04/27 14:20:43;;;;;;;3.20;2.50;;;20.50;36.40;;;;;;5064472;28;20397;-72
2022/04/27 14:23:28;;;;;;;3.90;3.03;;;20.60;30.60;;;;;;5052883;28;20462;-73
2022/04/27 14:26:14;;;;;;;4.10;2.90;;;20.20;29.30;;;;;;5044788;28;20471;-73
2022/04/27 14:29:00;;;;;;;15.30;3.03;;;19.80;30.20;;;;;;5049641;28;21159;-74
2022/04/27 14:31:47;;;;;;;7.53;2.77;;;19.50;32.20;;;;;;5049819;28;20468;-74
2022/04/27 14:34:33;;;;;;;5.27;3.40;;;19.30;33.20;;;;;;5050458;28;20440;-75
2022/04/27 14:37:18;;;;;;;4.53;3.40;;;19.20;32.80;;;;;;5054988;28;20454;-75
2022/04/27 14:40:05;;;;;;;3.40;2.93;;;18.90;33.00;;;;;;5048042;28;20462;-76
2022/04/27 14:42:52;;;;;;;3.10;2.73;;;18.60;33.10;;;;;;5050710;28;20491;-74
2022/04/27 14:45:38;;;;;;;5.07;3.77;;;18.50;34.20;;;;;;5050010;28;20421;-75
2022/04/27 14:48:25;;;;;;;8.03;3.33;;;18.40;36.70;;;;;;5065552;28;20451;-75
2022/04/27 14:51:12;;;;;;;4.77;3.00;;;18.20;38.90;;;;;;5072056;28;20477;-79